aviador You're here:

KLKR Decoded Metar

LANCASTER in SC, USA
Report Time2018-07-22 12:35:00
UTC Time2018-07-22 12:45:30
Flight Rules ifr IFR
Wind210° at 06 kt
W.Decomp.*RWY 24: 5.5 kt HW 2.3 kt LCW
W.Rank210° ranks 6
Current wind is above 210° avg. (5.6)
Visibility9999 m
Phenomena:N/A
Clouds:Overcast 005 Hf
Ceiling500 ft
Temp22°C (ISA +8)
Dew Point22°C (100% RH)
QNH1008 hPa
Density Alt1,936 ft
Elevation489 ft
Report Wrong Elevation
Raw Report
METAR KLKR 221235Z AUTO 21006KT 10SM OVC005 22/22 A2977 RMK AO2=

Extra information for KLKR:More info

Metar Taf Metar & Taf Last 4 Metars F.Rules Stats Wind Profile Meteogram Temp Stats Airport Information Weather charts Add Link Nearby VenuesMetar ALERT Operation Metar Decoded Social comments

AIRNAV info for KLKR